Terminal Aerodrome Forecast
Issued by NWS

Home | Current Version | Previous Version | Text Only | Print | Product List | Glossary Off
Versions: 1 2 3 4 5 6 7 8 9 10 11 12 13 14 15 16 17 18 19 20 21 22 23 24 25 26 27 28 29 30 31 32 33 34 35 36 37 38 39 40 41 42 43

025
FTUS43 KGRB 072338
TAFRHI
TAF
KRHI 072338Z 0800/0824 26007KT P6SM -SN SCT015 OVC025
      TEMPO 0800/0803 4SM -SN BKN015
     FM080300 27009KT 5SM -SN SCT006 BKN015
      TEMPO 0803/0807 3SM -SN BR BKN006
     FM080700 30010G15KT 2SM -SN BKN008
     FM081200 33012G24KT 3SM -SN SCT009 OVC012=

USA.gov is the U.S. government's official web portal to all federal, state and local government web resources and services.